Time;durP1;ratioP1;P1;durP2;ratioP2;P2;SDS_P1;SDS_P2;PMS_P1;PMS_P2;Temp;Humidity;BMP_temperature;BMP_pressure;BME280_temperature;BME280_humidity;BME280_pressure;Samples;Min_cycle;Max_cycle;Signal;HPM_P1;HPM_P2
2022/09/15 00:01:48;;;;;;;8.00;2.15;;;;;;;11.12;100.00;155317.41;4990369;28;20065;-80
2022/09/15 00:04:14;;;;;;;7.03;1.77;;;;;;;11.27;100.00;155355.91;4995057;28;20041;-80
2022/09/15 00:06:39;;;;;;;6.35;1.58;;;;;;;11.20;100.00;155339.19;5011439;28;20124;-80
2022/09/15 00:09:05;;;;;;;9.55;1.77;;;;;;;11.35;100.00;155376.44;4991831;28;20037;-81
2022/09/15 00:11:33;;;;;;;6.88;1.38;;;;;;;11.62;100.00;155443.16;4998194;28;20124;-81
2022/09/15 00:14:01;;;;;;;7.93;1.60;;;;;;;11.76;100.00;155477.88;4982027;28;20050;-81
2022/09/15 00:16:29;;;;;;;4.95;1.48;;;;;;;11.74;100.00;155472.72;5014744;28;20041;-80
2022/09/15 00:18:55;;;;;;;7.15;1.50;;;;;;;11.74;100.00;155474.00;4985619;28;20038;-81
2022/09/15 00:21:25;;;;;;;9.55;1.65;;;;;;;11.75;100.00;155475.28;5002053;28;20033;-81
2022/09/15 00:23:51;;;;;;;6.53;1.48;;;;;;;11.85;100.00;155500.97;5001337;28;20041;-80
2022/09/15 00:26:20;;;;;;;6.75;1.30;;;;;;;11.86;100.00;155503.53;4977048;28;20038;-81
2022/09/15 00:28:46;;;;;;;6.60;1.48;;;;;;;11.99;100.00;155536.94;4974732;28;20113;-82
2022/09/15 00:31:14;;;;;;;4.00;1.35;;;;;;;12.06;100.00;155553.66;4999314;28;20117;-79
2022/09/15 00:33:41;;;;;;;7.68;1.55;;;;;;;12.16;100.00;155578.06;5012478;28;20045;-79
2022/09/15 00:36:09;;;;;;;6.32;1.50;;;;;;;12.40;100.00;155639.72;4994694;28;20110;-80
2022/09/15 00:38:36;;;;;;;7.88;1.90;;;;;;;12.35;100.00;155626.84;5009214;28;20073;-80
2022/09/15 00:41:02;;;;;;;8.68;1.65;;;;;;;12.39;100.00;155635.84;4996879;28;20036;-78
2022/09/15 00:43:59;;;;;;;9.23;1.80;;;;;;;12.40;100.00;155639.72;5009962;28;20026;-79
2022/09/15 00:46:38;;;;;;;8.15;1.85;;;;;;;12.55;100.00;155675.69;4980648;28;20464;-82
2022/09/15 00:49:12;;;;;;;6.57;1.73;;;;;;;12.51;100.00;155666.69;4997128;28;20046;-82
2022/09/15 00:51:40;;;;;;;7.93;1.95;;;;;;;12.51;100.00;155665.38;5012819;28;20065;-84
2022/09/15 00:54:17;;;;;;;6.68;1.85;;;;;;;12.54;100.00;155674.38;5004064;28;20069;-79
2022/09/15 00:56:46;;;;;;;8.55;1.70;;;;;;;12.52;100.00;155669.25;5012116;28;20084;-84
2022/09/15 00:59:17;;;;;;;4.65;1.58;;;;;;;12.42;100.00;155644.84;5001327;28;20040;-81
2022/09/15 01:01:44;;;;;;;6.93;1.73;;;;;;;12.40;100.00;155639.72;4982498;28;20038;-82
2022/09/15 01:04:11;;;;;;;7.78;1.80;;;;;;;12.42;100.00;155643.56;5000905;28;20037;-81
2022/09/15 01:06:46;;;;;;;6.75;1.70;;;;;;;12.29;100.00;155611.44;4998224;28;20103;-82
2022/09/15 01:09:21;;;;;;;7.90;2.00;;;;;;;12.28;100.00;155608.84;4992809;28;20037;-82
2022/09/15 01:11:47;;;;;;;9.10;1.67;;;;;;;12.26;100.00;155605.03;4979192;28;20067;-81
2022/09/15 01:14:12;;;;;;;4.07;1.60;;;;;;;12.27;100.00;155607.59;4971729;28;20034;-79
2022/09/15 01:17:02;;;;;;;3.83;1.30;;;;;;;12.16;100.00;155578.06;4978280;28;20052;-83
2022/09/15 01:20:10;;;;;;;8.35;1.83;;;;;;;12.15;100.00;155575.47;5011125;28;20037;-81
2022/09/15 01:23:10;;;;;;;5.93;1.73;;;;;;;12.12;100.00;155569.06;4999741;28;20041;-81
2022/09/15 01:25:52;;;;;;;7.68;1.80;;;;;;;12.07;100.00;155557.53;4996141;28;20518;-80
2022/09/15 01:28:49;;;;;;;10.57;2.15;;;;;;;12.01;100.00;155542.09;5014519;28;20037;-81
2022/09/15 01:31:24;;;;;;;4.20;1.38;;;;;;;12.00;100.00;155539.53;4985924;28;20124;-81
2022/09/15 01:34:13;;;;;;;4.65;1.60;;;;;;;12.00;100.00;155539.53;4994873;28;20136;-82
2022/09/15 01:36:47;;;;;;;5.38;1.67;;;;;;;12.12;100.00;155569.06;5013276;28;20029;-79
2022/09/15 01:39:20;;;;;;;6.35;1.92;;;;;;;12.14;100.00;155572.94;4974085;28;20060;-81
2022/09/15 01:41:51;;;;;;;5.25;1.63;;;;;;;12.04;100.00;155548.53;4994414;28;20045;-82
2022/09/15 01:44:37;;;;;;;5.45;1.77;;;;;;;12.06;100.00;155553.66;4987137;28;20137;-80
2022/09/15 01:47:08;;;;;;;7.25;1.48;;;;;;;12.01;100.00;155542.09;4982113;28;20052;-80
2022/09/15 01:49:58;;;;;;;4.03;1.63;;;;;;;11.93;100.00;155521.56;4995119;28;20037;-81
2022/09/15 01:52:24;;;;;;;5.07;1.50;;;;;;;11.94;100.00;155524.16;4997133;28;20060;-80
2022/09/15 01:54:59;;;;;;;6.82;1.80;;;;;;;12.01;100.00;155540.81;4995458;28;20038;-81
2022/09/15 01:57:26;;;;;;;5.85;1.33;;;;;;;11.91;100.00;155516.44;4999553;28;20105;-81
2022/09/15 01:59:54;;;;;;;5.20;1.60;;;;;;;11.97;100.00;155531.81;4993422;28;20053;-83
2022/09/15 02:02:29;;;;;;;5.82;2.22;;;;;;;12.01;100.00;155540.81;5006720;28;20069;-81
2022/09/15 02:05:02;;;;;;;2.78;1.40;;;;;;;11.97;100.00;155530.56;5035551;28;20037;-82
2022/09/15 02:07:43;;;;;;;;;;;;;;;12.07;100.00;155557.53;4995262;28;20041;-82
2022/09/15 02:10:20;;;;;;;8.15;1.73;;;;;;;12.07;100.00;155556.22;4991293;28;19987;-83
2022/09/15 02:12:56;;;;;;;6.88;1.65;;;;;;;12.14;100.00;155572.94;4985072;28;20178;-80
2022/09/15 02:15:35;;;;;;;7.80;1.90;;;;;;;12.17;100.00;155580.66;4985185;28;20034;-81
2022/09/15 02:18:05;;;;;;;8.15;1.60;;;;;;;12.18;100.00;155584.47;5007816;28;20055;-81
2022/09/15 02:20:57;;;;;;;9.23;1.80;;;;;;;12.22;100.00;155594.78;4981647;28;20056;-83
2022/09/15 02:23:27;;;;;;;6.68;1.95;;;;;;;12.21;100.00;155590.91;5012797;28;20041;-82
2022/09/15 02:25:58;;;;;;;6.22;1.50;;;;;;;12.11;100.00;155565.22;5019751;28;20060;-82
2022/09/15 02:28:28;;;;;;;5.47;1.60;;;;;;;12.09;100.00;155561.34;5005174;28;20033;-81
2022/09/15 02:30:57;;;;;;;6.55;1.63;;;;;;;12.11;100.00;155565.22;5002834;28;20180;-83
2022/09/15 02:33:27;;;;;;;9.10;1.63;;;;;;;11.96;100.00;155529.28;5002970;28;20041;-83
2022/09/15 02:35:53;;;;;;;6.95;1.70;;;;;;;12.06;100.00;155554.94;4988740;28;20052;-83
2022/09/15 02:38:19;;;;;;;5.28;1.60;;;;;;;12.15;100.00;155576.78;4987978;28;20040;-82
2022/09/15 02:40:46;;;;;;;8.05;1.67;;;;;;;12.22;100.00;155593.47;5008782;28;20044;-83
2022/09/15 02:43:16;;;;;;;5.45;1.70;;;;;;;12.18;100.00;155584.47;4980199;28;20025;-82
2022/09/15 02:45:42;;;;;;;9.20;2.00;;;;;;;12.23;100.00;155596.06;4998117;28;20042;-82
2022/09/15 02:48:08;;;;;;;7.18;2.53;;;;;;;12.33;100.00;155620.44;5002603;28;20034;-84
2022/09/15 02:50:35;;;;;;;10.27;2.55;;;;;;;12.33;100.00;155621.72;5001493;28;20039;-84
2022/09/15 02:53:00;;;;;;;10.88;2.30;;;;;;;12.28;100.00;155608.84;4989821;28;20376;-85
2022/09/15 02:55:27;;;;;;;5.22;1.77;;;;;;;12.20;100.00;155588.31;5019148;28;20032;-84
2022/09/15 02:57:54;;;;;;;7.28;2.13;;;;;;;12.20;100.00;155589.59;4999272;28;20402;-83
2022/09/15 03:00:20;;;;;;;7.43;2.20;;;;;;;12.26;100.00;155605.03;5003435;28;20036;-84
2022/09/15 03:02:50;;;;;;;11.32;2.65;;;;;;;12.21;100.00;155592.19;5005555;28;20037;-84
2022/09/15 03:05:18;;;;;;;9.13;2.00;;;;;;;12.23;100.00;155597.31;5014821;28;20033;-82
2022/09/15 03:07:44;;;;;;;8.93;2.42;;;;;;;12.14;100.00;155572.94;5006184;28;20044;-84
2022/09/15 03:10:11;;;;;;;7.90;2.10;;;;;;;12.11;100.00;155565.22;5005630;28;20041;-83
2022/09/15 03:12:39;;;;;;;7.18;2.40;;;;;;;12.09;100.00;155561.34;4989335;28;20041;-83
2022/09/15 03:15:07;;;;;;;10.98;2.78;;;;;;;12.03;100.00;155547.22;5005280;28;20037;-83
2022/09/15 03:17:38;;;;;;;4.70;2.20;;;;;;;12.02;100.00;155544.69;4994992;28;20121;-83
2022/09/15 03:20:05;;;;;;;8.65;2.38;;;;;;;11.99;100.00;155536.94;5006440;28;20483;-83
2022/09/15 03:22:31;;;;;;;5.63;2.05;;;;;;;11.92;100.00;155517.69;5011917;28;20093;-82
2022/09/15 03:24:57;;;;;;;6.85;2.28;;;;;;;11.90;100.00;155512.56;4989379;28;20060;-83
2022/09/15 03:27:22;;;;;;;8.43;2.83;;;;;;;11.86;100.00;155504.78;5001569;28;20034;-83
2022/09/15 03:29:48;;;;;;;6.78;2.50;;;;;;;11.77;100.00;155481.72;5017477;28;20041;-83
2022/09/15 03:32:14;;;;;;;7.57;2.20;;;;;;;11.73;100.00;155470.16;5004126;28;20030;-83
2022/09/15 03:34:40;;;;;;;7.20;2.53;;;;;;;11.84;100.00;155499.66;4987519;28;20033;-85
2022/09/15 03:37:05;;;;;;;5.60;2.40;;;;;;;11.91;100.00;155515.16;4987823;28;20498;-83
2022/09/15 03:39:31;;;;;;;7.40;2.40;;;;;;;11.88;100.00;155509.97;4999439;28;20414;-84
2022/09/15 03:41:57;;;;;;;6.10;2.25;;;;;;;11.86;100.00;155503.53;4986178;28;20109;-82
2022/09/15 03:44:23;;;;;;;5.97;2.58;;;;;;;11.87;100.00;155506.13;5026839;28;20030;-82
2022/09/15 03:46:48;;;;;;;8.10;2.35;;;;;;;11.91;100.00;155515.16;5007302;28;20037;-82
2022/09/15 03:49:14;;;;;;;6.05;2.30;;;;;;;11.94;100.00;155524.16;4996947;28;20026;-83
2022/09/15 03:51:40;;;;;;;8.48;2.50;;;;;;;12.05;100.00;155551.06;4988105;28;20061;-83
2022/09/15 03:54:06;;;;;;;11.15;2.50;;;;;;;12.07;100.00;155556.22;5003982;28;20033;-83
2022/09/15 03:56:32;;;;;;;11.43;2.30;;;;;;;12.04;100.00;155549.81;5016874;28;20041;-84
2022/09/15 03:58:59;;;;;;;11.13;2.72;;;;;;;12.06;100.00;155554.94;5003205;28;20173;-84
2022/09/15 04:01:25;;;;;;;7.35;2.28;;;;;;;12.00;100.00;155539.53;5011724;28;20039;-82
2022/09/15 04:03:51;;;;;;;10.65;2.35;;;;;;;12.00;100.00;155539.53;4992358;28;20629;-81
2022/09/15 04:06:17;;;;;;;6.65;2.20;;;;;;;11.98;100.00;155533.09;5001744;28;20040;-85
2022/09/15 04:08:43;;;;;;;5.97;2.08;;;;;;;11.88;100.00;155509.97;5015850;28;20419;-84
2022/09/15 04:11:11;;;;;;;10.40;2.45;;;;;;;11.92;100.00;155517.69;5003641;28;20052;-81
2022/09/15 04:13:38;;;;;;;6.93;2.42;;;;;;;11.91;100.00;155516.44;5003029;28;20073;-83
2022/09/15 04:16:07;;;;;;;10.43;2.42;;;;;;;11.92;100.00;155517.69;4986248;28;20499;-84
2022/09/15 04:18:34;;;;;;;9.57;2.80;;;;;;;11.95;100.00;155525.41;5008966;28;20047;-82
2022/09/15 04:21:02;;;;;;;7.40;2.17;;;;;;;11.88;100.00;155508.66;4987733;28;20123;-84
2022/09/15 04:23:28;;;;;;;7.88;2.70;;;;;;;11.87;100.00;155506.13;5014400;28;20029;-85
2022/09/15 04:25:56;;;;;;;9.07;2.03;;;;;;;11.80;100.00;155489.41;4989833;28;20061;-83
2022/09/15 04:28:23;;;;;;;7.70;2.50;;;;;;;11.84;100.00;155499.66;4999484;28;20250;-84
2022/09/15 04:30:49;;;;;;;6.65;2.40;;;;;;;11.79;100.00;155485.53;4979657;28;20034;-83
2022/09/15 04:33:15;;;;;;;8.30;2.35;;;;;;;11.75;100.00;155476.53;5001490;28;20360;-83
2022/09/15 04:35:40;;;;;;;7.78;2.47;;;;;;;11.66;100.00;155453.47;5018317;28;20029;-82
2022/09/15 04:38:06;;;;;;;9.30;2.53;;;;;;;11.58;100.00;155434.19;5006499;28;20449;-80
2022/09/15 04:40:32;;;;;;;6.95;2.45;;;;;;;11.62;100.00;155443.16;4987829;28;20049;-85
2022/09/15 04:42:58;;;;;;;4.72;2.03;;;;;;;11.50;100.00;155414.94;5004715;28;20088;-85
2022/09/15 04:45:23;;;;;;;6.35;2.00;;;;;;;11.70;100.00;155463.75;4984072;28;20056;-84
2022/09/15 04:47:50;;;;;;;8.00;2.00;;;;;;;11.68;100.00;155458.63;5011675;28;20055;-82
2022/09/15 04:50:16;;;;;;;10.18;2.20;;;;;;;11.67;100.00;155457.28;5023333;28;20052;-83
2022/09/15 04:52:42;;;;;;;10.30;2.65;;;;;;;11.62;100.00;155443.16;5003671;28;20030;-82
2022/09/15 04:55:08;;;;;;;5.32;1.90;;;;;;;11.68;100.00;155459.88;4990183;28;20037;-83
2022/09/15 04:57:34;;;;;;;7.88;2.40;;;;;;;11.64;100.00;155448.31;5003874;28;20037;-83
2022/09/15 04:59:59;;;;;;;6.78;2.00;;;;;;;11.58;100.00;155432.91;4993096;28;20044;-85
2022/09/15 05:02:25;;;;;;;9.90;1.95;;;;;;;11.75;100.00;155475.28;5001318;28;20783;-83
2022/09/15 05:04:51;;;;;;;5.78;2.00;;;;;;;11.75;100.00;155475.28;5006250;28;20033;-84
2022/09/15 05:07:17;;;;;;;8.55;2.03;;;;;;;11.74;100.00;155474.00;5019939;28;20053;-81
2022/09/15 05:09:43;;;;;;;11.40;2.42;;;;;;;11.75;100.00;155476.53;5006308;28;20044;-82
2022/09/15 05:12:08;;;;;;;10.73;2.58;;;;;;;11.77;100.00;155480.41;4988291;28;20038;-84
2022/09/15 05:14:34;;;;;;;7.35;2.15;;;;;;;11.74;100.00;155474.00;5002840;28;20065;-82
2022/09/15 05:16:59;;;;;;;5.90;2.00;;;;;;;11.81;100.00;155490.66;4998642;28;20128;-83
2022/09/15 05:19:25;;;;;;;10.75;2.13;;;;;;;11.79;100.00;155486.84;4998965;28;20029;-82
2022/09/15 05:21:50;;;;;;;8.20;2.00;;;;;;;11.78;100.00;155483.00;4991089;28;20070;-83
2022/09/15 05:24:16;;;;;;;10.48;2.28;;;;;;;11.65;100.00;155450.91;5004221;28;20040;-83
2022/09/15 05:26:42;;;;;;;7.47;1.95;;;;;;;11.62;100.00;155443.16;4992106;28;20084;-82
2022/09/15 05:29:07;;;;;;;10.23;2.13;;;;;;;11.66;100.00;155453.47;5022407;28;20033;-82
2022/09/15 05:31:33;;;;;;;6.80;1.92;;;;;;;11.76;100.00;155479.13;5005660;28;20042;-83
2022/09/15 05:34:01;;;;;;;10.23;1.90;;;;;;;11.73;100.00;155470.16;4987768;28;20100;-83
2022/09/15 05:36:27;;;;;;;6.28;1.70;;;;;;;11.78;100.00;155484.28;4985013;28;20093;-82
2022/09/15 05:38:55;;;;;;;9.80;1.90;;;;;;;11.73;100.00;155471.41;5014111;28;20041;-84
2022/09/15 05:41:21;;;;;;;7.97;1.48;;;;;;;11.83;100.00;155495.84;5019989;28;20032;-82
2022/09/15 05:43:48;;;;;;;8.00;1.52;;;;;;;11.85;100.00;155500.97;5006541;28;20055;-80
2022/09/15 05:46:15;;;;;;;8.43;1.60;;;;;;;11.85;100.00;155500.97;4988088;28;20038;-83
2022/09/15 05:48:41;;;;;;;9.45;2.10;;;;;;;11.83;100.00;155495.84;5004907;28;20042;-85
2022/09/15 05:51:07;;;;;;;11.45;1.60;;;;;;;11.85;100.00;155500.97;4989528;28;20041;-82
2022/09/15 05:53:34;;;;;;;8.55;1.58;;;;;;;11.79;100.00;155486.84;5006730;28;20063;-82
2022/09/15 05:56:05;;;;;;;6.47;1.50;;;;;;;11.85;100.00;155500.97;5003315;28;20121;-81
2022/09/15 05:58:31;;;;;;;11.40;1.60;;;;;;;11.81;100.00;155492.00;4996603;28;20389;-83
2022/09/15 06:01:04;;;;;;;9.93;1.80;;;;;;;11.88;100.00;155509.97;5019443;28;20294;-83
2022/09/15 06:03:30;;;;;;;12.13;1.70;;;;;;;11.77;100.00;155481.72;5001322;28;20029;-83
2022/09/15 06:06:03;;;;;;;12.35;1.70;;;;;;;11.80;100.00;155488.13;4998023;28;20129;-85
2022/09/15 06:08:39;;;;;;;5.13;1.40;;;;;;;11.69;100.00;155461.16;4982014;28;20022;-81
2022/09/15 06:11:08;;;;;;;11.73;1.95;;;;;;;11.78;100.00;155484.28;4988192;28;20407;-82
2022/09/15 06:13:34;;;;;;;8.63;1.50;;;;;;;11.73;100.00;155470.16;4998449;28;20121;-82
2022/09/15 06:16:09;;;;;;;11.25;1.52;;;;;;;11.65;100.00;155452.16;4990288;28;20091;-84
2022/09/15 06:18:36;;;;;;;11.95;2.60;;;;;;;11.82;100.00;155494.53;5000132;28;20052;-83
2022/09/15 06:21:11;;;;;;;7.53;1.73;;;;;;;12.00;100.00;155538.28;4988280;28;20033;-83
2022/09/15 06:23:38;;;;;;;10.10;2.10;;;;;;;12.14;100.00;155572.94;4999092;28;20037;-82
2022/09/15 06:26:12;;;;;;;11.02;1.80;;;;;;;12.07;100.00;155557.53;5014045;28;20053;-82
2022/09/15 06:28:40;;;;;;;6.00;1.60;;;;;;;12.12;100.00;155567.78;4995857;28;20545;-83
2022/09/15 06:31:11;;;;;;;11.23;1.80;;;;;;;12.15;100.00;155575.47;5004208;28;20076;-81
2022/09/15 06:33:42;;;;;;;4.97;1.35;;;;;;;12.13;100.00;155571.66;4993769;28;20068;-82
2022/09/15 06:36:10;;;;;;;7.47;1.45;;;;;;;12.21;100.00;155592.19;4986689;28;20059;-83
2022/09/15 06:38:37;;;;;;;8.05;1.70;;;;;;;12.49;100.00;155660.25;5015777;28;20040;-83
2022/09/15 06:41:04;;;;;;;10.35;2.00;;;;;;;12.78;100.00;155734.75;5016993;28;20530;-81
2022/09/15 06:43:31;;;;;;;7.75;1.55;;;;;;;13.05;100.00;155802.88;4984097;28;20041;-84
2022/09/15 06:46:11;;;;;;;8.68;1.52;;;;;;;13.07;100.00;155805.41;5003547;28;20038;-83
2022/09/15 06:48:38;;;;;;;7.50;1.55;;;;;;;13.01;100.00;155792.56;5014826;28;20448;-84
2022/09/15 06:51:05;;;;;;;7.53;1.75;;;;;;;12.90;100.00;155763.03;5004780;28;20076;-83
2022/09/15 06:53:32;;;;;;;5.70;1.20;;;;;;;12.79;100.00;155736.03;4985475;28;20096;-83
2022/09/15 06:56:06;;;;;;;8.18;1.70;;;;;;;12.75;100.00;155727.06;5019248;28;20464;-82
2022/09/15 06:58:36;;;;;;;11.15;1.60;;;;;;;12.75;100.00;155725.75;5000586;28;20033;-83
2022/09/15 07:01:08;;;;;;;9.02;1.48;;;;;;;12.73;100.00;155721.91;4987520;28;20682;-85
2022/09/15 07:03:35;;;;;;;9.75;1.50;;;;;;;12.72;100.00;155719.34;4995860;28;20480;-84
2022/09/15 07:06:02;;;;;;;7.05;1.65;;;;;;;12.77;100.00;155730.88;4988151;28;20089;-84
2022/09/15 07:08:28;;;;;;;11.43;2.10;;;;;;;12.65;100.00;155701.34;5007031;28;20512;-84
2022/09/15 07:10:54;;;;;;;10.32;1.75;;;;;;;12.68;100.00;155709.09;5015648;28;20034;-85
2022/09/15 07:13:20;;;;;;;9.98;2.17;;;;;;;12.83;100.00;155747.63;5004033;28;20044;-84
2022/09/15 07:15:57;;;;;;;14.50;1.65;;;;;;;13.31;100.00;155865.88;5001262;28;20030;-84
2022/09/15 07:18:24;;;;;;;11.23;1.48;;;;;;;13.51;100.00;155916.03;5005520;28;20046;-85
2022/09/15 07:20:50;;;;;;;12.13;1.55;;;;;;;13.79;100.00;155987.97;4987594;28;20360;-83
2022/09/15 07:23:17;;;;;;;10.02;1.77;;;;;;;14.02;100.00;156044.56;5006820;28;20037;-82
2022/09/15 07:25:44;;;;;;;11.55;1.38;;;;;;;13.90;100.00;156015.00;4989263;28;20045;-84
2022/09/15 07:28:16;;;;;;;6.93;1.60;;;;;;;13.82;100.00;155994.41;5021000;28;20399;-84
2022/09/15 07:30:42;;;;;;;7.68;1.70;;;;;;;13.67;100.00;155955.84;5024651;28;20107;-84
2022/09/15 07:33:10;;;;;;;14.90;2.05;;;;;;;13.93;100.00;156022.69;5022284;28;20513;-84
2022/09/15 07:35:41;;;;;;;19.48;2.00;;;;;;;14.33;100.00;156122.97;5004521;28;20034;-83
2022/09/15 07:38:06;;;;;;;11.90;1.60;;;;;;;14.55;100.00;156178.28;5035119;28;20029;-84
2022/09/15 07:40:32;;;;;;;8.93;1.77;;;;;;;14.39;100.00;156137.09;5004482;28;20050;-84
2022/09/15 07:42:58;;;;;;;11.02;1.40;;;;;;;14.19;100.00;156086.97;4989190;28;20119;-84
2022/09/15 07:45:24;;;;;;;10.52;1.60;;;;;;;13.99;100.00;156036.81;5009366;28;20037;-84
2022/09/15 07:47:49;;;;;;;7.70;1.35;;;;;;;13.65;100.00;155950.69;4992759;28;20056;-83
2022/09/15 07:50:15;;;;;;;7.93;1.50;;;;;;;13.36;100.00;155878.75;5004428;28;20132;-83
2022/09/15 07:52:40;;;;;;;12.05;1.60;;;;;;;13.24;100.00;155850.41;4996158;28;20037;-83
2022/09/15 07:55:08;;;;;;;10.35;1.60;;;;;;;13.17;100.00;155831.16;5005347;28;20099;-84
2022/09/15 07:57:34;;;;;;;6.70;1.38;;;;;;;13.00;100.00;155788.75;5005276;28;20041;-83
2022/09/15 07:59:59;;;;;;;9.57;1.55;;;;;;;13.03;100.00;155797.75;5005220;28;20033;-83
2022/09/15 08:02:25;;;;;;;9.02;1.60;;;;;;;13.01;100.00;155792.56;5023163;28;20051;-81
2022/09/15 08:04:52;;;;;;;9.10;1.67;;;;;;;13.14;100.00;155823.41;4990873;28;20033;-82
2022/09/15 08:07:17;;;;;;;11.40;1.77;;;;;;;13.42;100.00;155894.16;5005962;28;20041;-81
2022/09/15 08:09:43;;;;;;;6.30;1.40;;;;;;;13.52;100.00;155919.84;5024424;28;20075;-83
2022/09/15 08:12:08;;;;;;;7.70;1.55;;;;;;;13.69;100.00;155960.97;5007186;28;20045;-81
2022/09/15 08:14:34;;;;;;;11.45;2.20;;;;;;;13.83;100.00;155998.25;5003837;28;20030;-83
2022/09/15 08:17:02;;;;;;;8.43;1.50;;;;;;;14.14;100.00;156075.38;5014280;28;20025;-82
2022/09/15 08:19:30;;;;;;;6.03;1.27;;;;;;;14.37;100.00;156133.28;4998166;28;20056;-82
2022/09/15 08:21:55;;;;;;;9.90;1.42;;;;;;;14.54;100.00;156174.41;4988155;28;20033;-82
2022/09/15 08:24:22;;;;;;;9.25;1.52;;;;;;;14.90;100.00;156264.47;5001114;28;20037;-81
2022/09/15 08:26:49;;;;;;;16.92;1.90;;;;;;;15.06;100.00;156305.66;5016694;28;20064;-82
2022/09/15 08:29:16;;;;;;;4.78;1.30;;;;;;;14.88;100.00;156259.34;4984970;28;20399;-83
2022/09/15 08:31:43;;;;;;;11.65;1.50;;;;;;;14.83;100.00;156247.78;5019088;28;20029;-83
2022/09/15 08:34:13;;;;;;;6.68;1.30;;;;;;;14.60;100.00;156189.91;4990769;28;20479;-83
2022/09/15 08:36:40;;;;;;;6.45;1.50;;;;;;;14.41;100.00;156143.56;4983199;28;20137;-83
2022/09/15 08:39:06;;;;;;;7.13;1.40;;;;;;;14.48;100.00;156160.25;5009014;28;20044;-85
2022/09/15 08:41:43;;;;;;;7.68;1.30;;;;;;;14.55;100.00;156177.00;4984456;28;20038;-84
2022/09/15 08:44:18;;;;;;;8.38;1.60;;;;;;;14.63;100.00;156197.59;5028448;28;20088;-82
2022/09/15 08:46:55;;;;;;;6.53;1.42;;;;;;;14.57;100.00;156182.19;4993684;28;20046;-85
2022/09/15 08:49:28;;;;;;;9.05;1.60;;;;;;;14.57;100.00;156183.47;5005387;28;20033;-85
2022/09/15 08:51:57;;;;;;;12.43;1.52;;;;;;;14.77;100.00;156232.38;4996548;28;20034;-84
2022/09/15 08:54:26;;;;;;;8.60;1.48;;;;;;;14.89;100.00;156261.94;4993744;28;20068;-84
2022/09/15 08:56:52;;;;;;;6.82;0.93;;;;;;;14.86;100.00;156254.19;4981604;28;20468;-85
2022/09/15 08:59:19;;;;;;;10.35;1.30;;;;;;;14.96;100.00;156279.97;4999729;28;20037;-83
2022/09/15 09:02:22;;;;;;;6.43;1.23;;;;;;;15.04;100.00;156300.53;4998866;28;20081;-84
2022/09/15 09:04:53;;;;;;;11.32;1.40;;;;;;;15.20;100.00;156340.44;5012951;28;20061;-85
2022/09/15 09:07:54;;;;;;;5.97;1.27;;;;;;;15.34;100.00;156376.44;5021757;28;20037;-83
2022/09/15 09:10:47;;;;;;;9.82;1.30;;;;;;;15.33;100.00;156373.88;4999481;28;20124;-82
2022/09/15 09:13:48;;;;;;;7.90;1.27;;;;;;;15.46;100.00;156404.72;4988572;28;20033;-82
2022/09/15 09:16:32;;;;;;;6.30;1.15;;;;;;;15.52;100.00;156421.50;5003301;28;20087;-82
2022/09/15 09:19:06;;;;;;;8.18;1.58;;;;;;;15.76;100.00;156482.03;5004527;28;20046;-83
2022/09/15 09:21:40;;;;;;;6.35;1.42;;;;;;;15.97;100.00;156533.47;4985064;28;20049;-83
2022/09/15 09:24:34;;;;;;;6.38;0.90;;;;;;;16.26;100.00;156606.88;5001782;28;20032;-82
2022/09/15 09:26:59;;;;;;;5.78;1.27;;;;;;;16.45;100.00;156653.22;4989568;28;20045;-84
2022/09/15 09:29:33;;;;;;;5.70;1.05;;;;;;;16.81;100.00;156743.34;5012940;28;20165;-84
2022/09/15 09:32:01;;;;;;;4.28;0.95;;;;;;;17.09;100.00;156814.25;4989660;28;20034;-81
2022/09/15 09:34:49;;;;;;;11.82;2.05;;;;;;;17.09;100.00;156815.50;5023049;28;20031;-80
2022/09/15 09:37:15;;;;;;;9.93;1.10;;;;;;;17.39;99.94;156888.97;4988908;28;20041;-82
2022/09/15 09:39:41;;;;;;;10.85;1.50;;;;;;;17.31;92.38;156870.91;5021458;28;20041;-85
2022/09/15 09:42:14;;;;;;;6.25;0.98;;;;;;;17.29;96.87;156864.44;4988345;28;20407;-83
2022/09/15 09:44:40;;;;;;;6.55;1.17;;;;;;;17.31;91.21;156869.66;4999125;28;20476;-83
2022/09/15 09:47:06;;;;;;;6.57;1.15;;;;;;;17.27;95.52;156859.31;4987653;28;20503;-83
2022/09/15 09:49:46;;;;;;;5.72;0.88;;;;;;;16.96;100.00;156780.75;4984626;28;20022;-83
2022/09/15 09:52:12;;;;;;;4.53;1.10;;;;;;;16.62;100.00;156695.72;5003464;28;20037;-82
2022/09/15 09:54:38;;;;;;;4.63;0.90;;;;;;;16.12;100.00;156572.13;4983040;28;20431;-81
2022/09/15 09:57:13;;;;;;;7.55;1.35;;;;;;;15.62;100.00;156445.94;5012552;28;20029;-79
2022/09/15 09:59:40;;;;;;;9.40;1.30;;;;;;;15.24;100.00;156349.41;5009375;28;20442;-81
2022/09/15 10:02:18;;;;;;;7.30;1.25;;;;;;;14.49;100.00;156161.56;4997381;28;21104;-78
2022/09/15 10:04:46;;;;;;;7.15;1.27;;;;;;;14.08;100.00;156058.69;5013688;28;20044;-79
2022/09/15 10:07:14;;;;;;;9.15;1.17;;;;;;;13.88;100.00;156009.84;4993487;28;20038;-78
2022/09/15 10:09:51;;;;;;;8.35;1.30;;;;;;;13.88;100.00;156008.53;4993956;28;20743;-79
2022/09/15 10:12:30;;;;;;;7.60;1.23;;;;;;;13.97;100.00;156032.94;4974449;28;20033;-81
2022/09/15 10:15:06;;;;;;;4.25;1.00;;;;;;;14.09;100.00;156061.25;4997219;28;20986;-80
2022/09/15 10:17:35;;;;;;;11.18;1.67;;;;;;;14.17;100.00;156083.13;5008926;28;20083;-79
2022/09/15 10:20:02;;;;;;;4.93;1.20;;;;;;;14.19;100.00;156086.97;4980637;28;20128;-79
2022/09/15 10:22:32;;;;;;;6.68;1.20;;;;;;;14.20;100.00;156090.84;4989302;28;20030;-79
2022/09/15 10:25:00;;;;;;;7.70;1.52;;;;;;;14.54;100.00;156174.41;5015082;28;20068;-80
2022/09/15 10:27:34;;;;;;;7.13;1.10;;;;;;;14.98;100.00;156286.38;5024493;28;20036;-80
2022/09/15 10:30:18;;;;;;;7.15;1.20;;;;;;;15.46;100.00;156404.72;4974159;28;20041;-79
2022/09/15 10:32:44;;;;;;;6.00;1.27;;;;;;;15.74;100.00;156476.84;5009528;28;20048;-79
2022/09/15 10:35:17;;;;;;;8.27;1.40;;;;;;;16.15;100.00;156579.81;4978432;28;20405;-79
2022/09/15 10:38:10;;;;;;;5.00;1.10;;;;;;;16.47;100.00;156659.66;4993921;28;20530;-79
2022/09/15 10:40:51;;;;;;;;;;;;;;;16.70;100.00;156717.56;5006592;28;20041;-78
2022/09/15 10:43:35;;;;;;;5.97;1.85;;;;;;;16.67;100.00;156709.88;4985616;28;19920;-78
2022/09/15 10:46:12;;;;;;;7.93;1.20;;;;;;;16.64;99.21;156702.13;5000376;28;20108;-79
2022/09/15 10:48:59;;;;;;;4.88;0.90;;;;;;;16.81;100.00;156744.63;4992422;28;20046;-78
2022/09/15 10:51:51;;;;;;;5.90;1.20;;;;;;;17.04;100.00;156802.63;5015049;28;20030;-80
2022/09/15 10:54:29;;;;;;;5.88;1.60;;;;;;;17.15;100.00;156829.69;4997689;28;20051;-79
2022/09/15 10:57:11;;;;;;;7.32;1.20;;;;;;;17.10;100.00;156818.13;4983953;28;20033;-83
2022/09/15 10:59:44;;;;;;;5.80;1.00;;;;;;;17.00;100.00;156792.31;4975999;28;20056;-80
2022/09/15 11:02:46;;;;;;;7.22;1.00;;;;;;;16.80;93.05;156742.09;4982683;28;20052;-80
2022/09/15 11:05:15;;;;;;;7.82;1.23;;;;;;;17.00;94.85;156792.31;4987991;28;20038;-79
2022/09/15 11:08:11;;;;;;;5.35;0.80;;;;;;;17.19;100.00;156838.69;4983025;28;20061;-79
2022/09/15 11:11:00;;;;;;;5.22;0.85;;;;;;;17.28;96.10;156861.91;4974806;28;20046;-80
2022/09/15 11:13:45;;;;;;;3.90;0.82;;;;;;;17.24;91.74;156852.88;5012606;28;20289;-79
2022/09/15 11:16:31;;;;;;;5.38;0.82;;;;;;;17.19;84.42;156838.69;5004373;28;20038;-80
2022/09/15 11:19:21;;;;;;;5.43;0.80;;;;;;;17.58;87.37;156937.91;4980572;28;20132;-79
2022/09/15 11:21:56;;;;;;;6.20;0.90;;;;;;;17.74;88.01;156977.81;4999431;28;20056;-77
2022/09/15 11:24:35;;;;;;;2.75;0.65;;;;;;;17.84;90.04;157003.66;4998495;28;20040;-79
2022/09/15 11:27:19;;;;;;;7.70;0.98;;;;;;;18.03;89.70;157050.06;5018114;28;20044;-78
2022/09/15 11:30:00;;;;;;;5.82;0.98;;;;;;;18.06;88.77;157057.75;4979126;28;20048;-79
2022/09/15 11:32:33;;;;;;;5.72;0.88;;;;;;;17.97;82.99;157035.88;5003984;28;20038;-77
2022/09/15 11:35:25;;;;;;;5.25;0.80;;;;;;;18.02;85.93;157047.47;5012076;28;20033;-80